sensor_id;sensor_type;location;lat;lon;timestamp;P1;durP1;ratioP1;P2;durP2;ratioP2
21458;SDS011;10891;49.350;19.386;2022-10-17T00:00:09;21.20;;;11.40;;
21458;SDS011;10891;49.350;19.386;2022-10-17T00:02:36;20.85;;;12.35;;
21458;SDS011;10891;49.350;19.386;2022-10-17T00:05:05;28.60;;;15.05;;
21458;SDS011;10891;49.350;19.386;2022-10-17T00:07:32;25.55;;;12.85;;
21458;SDS011;10891;49.350;19.386;2022-10-17T00:09:59;16.13;;;10.13;;
21458;SDS011;10891;49.350;19.386;2022-10-17T00:12:26;20.38;;;11.43;;
21458;SDS011;10891;49.350;19.386;2022-10-17T00:14:52;22.98;;;12.85;;
21458;SDS011;10891;49.350;19.386;2022-10-17T00:17:19;20.33;;;11.88;;
21458;SDS011;10891;49.350;19.386;2022-10-17T00:19:46;19.70;;;11.85;;
21458;SDS011;10891;49.350;19.386;2022-10-17T00:22:14;15.57;;;9.70;;
21458;SDS011;10891;49.350;19.386;2022-10-17T00:24:41;18.73;;;10.38;;
21458;SDS011;10891;49.350;19.386;2022-10-17T00:27:08;34.00;;;17.13;;
21458;SDS011;10891;49.350;19.386;2022-10-17T00:29:35;48.22;;;20.52;;
21458;SDS011;10891;49.350;19.386;2022-10-17T00:32:01;39.75;;;20.73;;
21458;SDS011;10891;49.350;19.386;2022-10-17T00:34:28;29.88;;;14.50;;
21458;SDS011;10891;49.350;19.386;2022-10-17T00:36:56;23.65;;;13.70;;
21458;SDS011;10891;49.350;19.386;2022-10-17T00:39:24;33.10;;;17.88;;
21458;SDS011;10891;49.350;19.386;2022-10-17T00:41:51;29.95;;;17.35;;
21458;SDS011;10891;49.350;19.386;2022-10-17T00:47:27;34.45;;;17.80;;
21458;SDS011;10891;49.350;19.386;2022-10-17T00:49:55;31.55;;;16.85;;
21458;SDS011;10891;49.350;19.386;2022-10-17T00:52:24;26.77;;;13.35;;
21458;SDS011;10891;49.350;19.386;2022-10-17T00:54:55;21.88;;;13.77;;
21458;SDS011;10891;49.350;19.386;2022-10-17T00:57:26;26.23;;;12.95;;
21458;SDS011;10891;49.350;19.386;2022-10-17T00:59:55;21.08;;;13.45;;
21458;SDS011;10891;49.350;19.386;2022-10-17T01:02:24;28.00;;;14.77;;
21458;SDS011;10891;49.350;19.386;2022-10-17T01:04:51;22.83;;;14.05;;
21458;SDS011;10891;49.350;19.386;2022-10-17T01:07:23;24.73;;;14.75;;
21458;SDS011;10891;49.350;19.386;2022-10-17T01:09:50;21.42;;;12.63;;
21458;SDS011;10891;49.350;19.386;2022-10-17T01:12:19;21.50;;;12.85;;
21458;SDS011;10891;49.350;19.386;2022-10-17T01:14:51;27.55;;;16.13;;
21458;SDS011;10891;49.350;19.386;2022-10-17T01:17:28;83.68;;;32.83;;
21458;SDS011;10891;49.350;19.386;2022-10-17T01:23:04;23.42;;;13.48;;
21458;SDS011;10891;49.350;19.386;2022-10-17T01:25:46;24.33;;;12.20;;
21458;SDS011;10891;49.350;19.386;2022-10-17T01:28:28;16.80;;;10.57;;
21458;SDS011;10891;49.350;19.386;2022-10-17T01:31:07;22.58;;;10.90;;
21458;SDS011;10891;49.350;19.386;2022-10-17T01:33:43;18.42;;;11.18;;
21458;SDS011;10891;49.350;19.386;2022-10-17T01:36:19;21.13;;;12.20;;
21458;SDS011;10891;49.350;19.386;2022-10-17T01:38:53;21.10;;;12.23;;
21458;SDS011;10891;49.350;19.386;2022-10-17T01:41:26;19.02;;;11.40;;
21458;SDS011;10891;49.350;19.386;2022-10-17T01:44:02;21.25;;;12.55;;
21458;SDS011;10891;49.350;19.386;2022-10-17T01:46:37;24.02;;;13.73;;
21458;SDS011;10891;49.350;19.386;2022-10-17T01:49:06;25.13;;;12.55;;
21458;SDS011;10891;49.350;19.386;2022-10-17T01:51:35;17.83;;;12.30;;
21458;SDS011;10891;49.350;19.386;2022-10-17T01:54:08;18.50;;;12.43;;
21458;SDS011;10891;49.350;19.386;2022-10-17T01:56:38;28.00;;;17.83;;
21458;SDS011;10891;49.350;19.386;2022-10-17T01:59:08;24.25;;;14.90;;
21458;SDS011;10891;49.350;19.386;2022-10-17T02:01:39;24.33;;;13.35;;
21458;SDS011;10891;49.350;19.386;2022-10-17T02:04:08;23.90;;;14.70;;
21458;SDS011;10891;49.350;19.386;2022-10-17T02:06:36;27.73;;;17.30;;
21458;SDS011;10891;49.350;19.386;2022-10-17T02:09:14;23.77;;;15.45;;
21458;SDS011;10891;49.350;19.386;2022-10-17T02:11:44;20.83;;;13.75;;
21458;SDS011;10891;49.350;19.386;2022-10-17T02:14:22;20.40;;;12.88;;
21458;SDS011;10891;49.350;19.386;2022-10-17T02:17:00;23.15;;;12.25;;
21458;SDS011;10891;49.350;19.386;2022-10-17T02:19:34;23.52;;;14.52;;
21458;SDS011;10891;49.350;19.386;2022-10-17T02:22:15;22.25;;;15.00;;
21458;SDS011;10891;49.350;19.386;2022-10-17T02:24:49;24.88;;;15.55;;
21458;SDS011;10891;49.350;19.386;2022-10-17T02:27:22;24.60;;;15.50;;
21458;SDS011;10891;49.350;19.386;2022-10-17T02:30:00;21.60;;;14.95;;
21458;SDS011;10891;49.350;19.386;2022-10-17T02:32:35;25.00;;;14.00;;
21458;SDS011;10891;49.350;19.386;2022-10-17T02:35:07;23.38;;;15.85;;
21458;SDS011;10891;49.350;19.386;2022-10-17T02:37:36;21.60;;;14.10;;
21458;SDS011;10891;49.350;19.386;2022-10-17T02:40:06;18.15;;;12.18;;
21458;SDS011;10891;49.350;19.386;2022-10-17T02:42:35;23.95;;;14.70;;
21458;SDS011;10891;49.350;19.386;2022-10-17T02:45:04;19.98;;;12.98;;
21458;SDS011;10891;49.350;19.386;2022-10-17T02:47:35;25.40;;;13.55;;
21458;SDS011;10891;49.350;19.386;2022-10-17T02:50:08;24.98;;;13.30;;
21458;SDS011;10891;49.350;19.386;2022-10-17T02:52:36;23.88;;;15.32;;
21458;SDS011;10891;49.350;19.386;2022-10-17T02:55:08;24.08;;;15.75;;
21458;SDS011;10891;49.350;19.386;2022-10-17T02:57:39;27.00;;;14.15;;
21458;SDS011;10891;49.350;19.386;2022-10-17T03:00:11;23.77;;;13.75;;
21458;SDS011;10891;49.350;19.386;2022-10-17T03:02:42;29.48;;;16.38;;
21458;SDS011;10891;49.350;19.386;2022-10-17T03:05:12;27.60;;;16.52;;
21458;SDS011;10891;49.350;19.386;2022-10-17T03:07:40;24.30;;;14.82;;
21458;SDS011;10891;49.350;19.386;2022-10-17T03:10:07;19.20;;;11.25;;
21458;SDS011;10891;49.350;19.386;2022-10-17T03:12:34;19.98;;;12.30;;
21458;SDS011;10891;49.350;19.386;2022-10-17T03:15:01;18.35;;;11.75;;
21458;SDS011;10891;49.350;19.386;2022-10-17T03:17:28;17.88;;;11.95;;
21458;SDS011;10891;49.350;19.386;2022-10-17T03:19:56;20.60;;;11.90;;
21458;SDS011;10891;49.350;19.386;2022-10-17T03:22:23;19.48;;;11.20;;
21458;SDS011;10891;49.350;19.386;2022-10-17T03:24:50;17.80;;;12.10;;
21458;SDS011;10891;49.350;19.386;2022-10-17T03:27:17;18.98;;;11.18;;
21458;SDS011;10891;49.350;19.386;2022-10-17T03:29:44;19.20;;;11.75;;
21458;SDS011;10891;49.350;19.386;2022-10-17T03:32:10;19.85;;;10.40;;
21458;SDS011;10891;49.350;19.386;2022-10-17T03:34:37;25.38;;;13.30;;
21458;SDS011;10891;49.350;19.386;2022-10-17T03:37:05;18.20;;;12.55;;
21458;SDS011;10891;49.350;19.386;2022-10-17T03:39:32;17.35;;;10.88;;
21458;SDS011;10891;49.350;19.386;2022-10-17T03:41:59;17.00;;;10.57;;
21458;SDS011;10891;49.350;19.386;2022-10-17T03:44:26;16.52;;;10.20;;
21458;SDS011;10891;49.350;19.386;2022-10-17T03:46:53;19.92;;;10.90;;
21458;SDS011;10891;49.350;19.386;2022-10-17T03:49:20;16.90;;;10.52;;
21458;SDS011;10891;49.350;19.386;2022-10-17T03:51:46;18.83;;;11.10;;
21458;SDS011;10891;49.350;19.386;2022-10-17T03:54:15;17.42;;;10.93;;
21458;SDS011;10891;49.350;19.386;2022-10-17T03:56:41;18.52;;;10.55;;
21458;SDS011;10891;49.350;19.386;2022-10-17T03:59:10;19.60;;;11.25;;
21458;SDS011;10891;49.350;19.386;2022-10-17T04:01:38;15.18;;;9.75;;
21458;SDS011;10891;49.350;19.386;2022-10-17T04:04:05;22.08;;;10.50;;
21458;SDS011;10891;49.350;19.386;2022-10-17T04:06:32;17.77;;;10.13;;
21458;SDS011;10891;49.350;19.386;2022-10-17T04:09:00;17.73;;;11.20;;
21458;SDS011;10891;49.350;19.386;2022-10-17T04:11:28;16.33;;;10.38;;
21458;SDS011;10891;49.350;19.386;2022-10-17T04:13:55;17.80;;;11.75;;
21458;SDS011;10891;49.350;19.386;2022-10-17T04:16:23;20.40;;;10.98;;
21458;SDS011;10891;49.350;19.386;2022-10-17T04:18:51;20.33;;;11.27;;
21458;SDS011;10891;49.350;19.386;2022-10-17T04:21:19;16.73;;;11.15;;
21458;SDS011;10891;49.350;19.386;2022-10-17T04:23:46;17.45;;;11.65;;
21458;SDS011;10891;49.350;19.386;2022-10-17T04:26:13;21.05;;;11.43;;
21458;SDS011;10891;49.350;19.386;2022-10-17T04:28:41;20.00;;;11.55;;
21458;SDS011;10891;49.350;19.386;2022-10-17T04:31:10;19.20;;;12.23;;
21458;SDS011;10891;49.350;19.386;2022-10-17T04:33:39;15.35;;;10.77;;
21458;SDS011;10891;49.350;19.386;2022-10-17T04:36:08;18.40;;;11.18;;
21458;SDS011;10891;49.350;19.386;2022-10-17T04:38:37;16.08;;;11.07;;
21458;SDS011;10891;49.350;19.386;2022-10-17T04:41:04;28.25;;;13.88;;
21458;SDS011;10891;49.350;19.386;2022-10-17T04:43:33;20.60;;;14.40;;
21458;SDS011;10891;49.350;19.386;2022-10-17T04:46:03;20.17;;;12.07;;
21458;SDS011;10891;49.350;19.386;2022-10-17T04:48:31;23.33;;;12.75;;
21458;SDS011;10891;49.350;19.386;2022-10-17T04:50:59;21.70;;;13.57;;
21458;SDS011;10891;49.350;19.386;2022-10-17T04:53:27;25.02;;;14.18;;
21458;SDS011;10891;49.350;19.386;2022-10-17T04:55:56;23.52;;;13.80;;
21458;SDS011;10891;49.350;19.386;2022-10-17T04:58:23;29.17;;;12.40;;
21458;SDS011;10891;49.350;19.386;2022-10-17T05:00:49;31.40;;;15.10;;
21458;SDS011;10891;49.350;19.386;2022-10-17T05:03:18;26.90;;;16.38;;
21458;SDS011;10891;49.350;19.386;2022-10-17T05:05:45;25.23;;;14.52;;
21458;SDS011;10891;49.350;19.386;2022-10-17T05:08:15;27.95;;;14.18;;
21458;SDS011;10891;49.350;19.386;2022-10-17T05:10:42;22.20;;;12.55;;
21458;SDS011;10891;49.350;19.386;2022-10-17T05:13:11;19.33;;;11.45;;
21458;SDS011;10891;49.350;19.386;2022-10-17T05:15:38;22.05;;;11.52;;
21458;SDS011;10891;49.350;19.386;2022-10-17T05:18:05;21.42;;;11.80;;
21458;SDS011;10891;49.350;19.386;2022-10-17T05:20:34;19.88;;;11.38;;
21458;SDS011;10891;49.350;19.386;2022-10-17T05:23:01;25.88;;;12.52;;
21458;SDS011;10891;49.350;19.386;2022-10-17T05:25:28;20.98;;;12.48;;
21458;SDS011;10891;49.350;19.386;2022-10-17T05:27:55;22.25;;;12.77;;
21458;SDS011;10891;49.350;19.386;2022-10-17T05:30:22;18.40;;;11.38;;
21458;SDS011;10891;49.350;19.386;2022-10-17T05:32:51;26.08;;;13.05;;
21458;SDS011;10891;49.350;19.386;2022-10-17T05:35:18;22.15;;;13.48;;
21458;SDS011;10891;49.350;19.386;2022-10-17T05:37:47;18.10;;;11.85;;
21458;SDS011;10891;49.350;19.386;2022-10-17T05:40:14;24.60;;;13.48;;
21458;SDS011;10891;49.350;19.386;2022-10-17T05:42:44;21.45;;;11.35;;
21458;SDS011;10891;49.350;19.386;2022-10-17T05:45:11;16.52;;;10.80;;
21458;SDS011;10891;49.350;19.386;2022-10-17T05:47:38;21.50;;;11.25;;
21458;SDS011;10891;49.350;19.386;2022-10-17T05:50:06;27.17;;;13.68;;
21458;SDS011;10891;49.350;19.386;2022-10-17T05:52:34;26.88;;;16.42;;
21458;SDS011;10891;49.350;19.386;2022-10-17T05:55:03;21.15;;;12.85;;
21458;SDS011;10891;49.350;19.386;2022-10-17T05:57:31;18.30;;;11.82;;
21458;SDS011;10891;49.350;19.386;2022-10-17T05:59:57;22.40;;;12.45;;
21458;SDS011;10891;49.350;19.386;2022-10-17T06:02:25;26.98;;;14.07;;
21458;SDS011;10891;49.350;19.386;2022-10-17T06:04:51;20.60;;;11.43;;
21458;SDS011;10891;49.350;19.386;2022-10-17T06:07:18;22.98;;;12.02;;
21458;SDS011;10891;49.350;19.386;2022-10-17T06:09:45;26.70;;;12.35;;
21458;SDS011;10891;49.350;19.386;2022-10-17T06:12:14;20.02;;;11.48;;
21458;SDS011;10891;49.350;19.386;2022-10-17T06:14:41;18.83;;;11.30;;
21458;SDS011;10891;49.350;19.386;2022-10-17T06:17:07;23.20;;;11.25;;
21458;SDS011;10891;49.350;19.386;2022-10-17T06:19:34;23.05;;;10.93;;
21458;SDS011;10891;49.350;19.386;2022-10-17T06:22:02;17.48;;;11.25;;
21458;SDS011;10891;49.350;19.386;2022-10-17T06:24:28;18.25;;;11.07;;
21458;SDS011;10891;49.350;19.386;2022-10-17T06:26:55;19.15;;;10.65;;
21458;SDS011;10891;49.350;19.386;2022-10-17T06:29:24;14.95;;;9.55;;
21458;SDS011;10891;49.350;19.386;2022-10-17T06:31:51;19.67;;;10.15;;
21458;SDS011;10891;49.350;19.386;2022-10-17T06:34:18;16.90;;;10.70;;
21458;SDS011;10891;49.350;19.386;2022-10-17T06:36:45;14.38;;;10.05;;
21458;SDS011;10891;49.350;19.386;2022-10-17T06:39:13;20.52;;;10.00;;
21458;SDS011;10891;49.350;19.386;2022-10-17T06:41:40;15.48;;;9.75;;
21458;SDS011;10891;49.350;19.386;2022-10-17T06:44:08;19.48;;;10.57;;
21458;SDS011;10891;49.350;19.386;2022-10-17T06:46:37;21.35;;;10.30;;
21458;SDS011;10891;49.350;19.386;2022-10-17T06:49:04;12.18;;;8.43;;
21458;SDS011;10891;49.350;19.386;2022-10-17T06:51:33;14.63;;;9.68;;
21458;SDS011;10891;49.350;19.386;2022-10-17T06:54:01;16.35;;;9.20;;
21458;SDS011;10891;49.350;19.386;2022-10-17T06:56:28;20.98;;;9.05;;
21458;SDS011;10891;49.350;19.386;2022-10-17T06:58:55;18.77;;;8.48;;
21458;SDS011;10891;49.350;19.386;2022-10-17T07:01:22;12.85;;;8.70;;
21458;SDS011;10891;49.350;19.386;2022-10-17T07:03:51;14.85;;;9.48;;
21458;SDS011;10891;49.350;19.386;2022-10-17T07:06:17;14.65;;;9.10;;
21458;SDS011;10891;49.350;19.386;2022-10-17T07:08:44;12.55;;;7.97;;
21458;SDS011;10891;49.350;19.386;2022-10-17T07:11:13;13.15;;;7.70;;
21458;SDS011;10891;49.350;19.386;2022-10-17T07:13:42;14.93;;;8.10;;
21458;SDS011;10891;49.350;19.386;2022-10-17T07:16:09;12.27;;;7.63;;
21458;SDS011;10891;49.350;19.386;2022-10-17T07:18:37;13.85;;;9.02;;
21458;SDS011;10891;49.350;19.386;2022-10-17T07:21:06;13.52;;;8.68;;
21458;SDS011;10891;49.350;19.386;2022-10-17T07:23:33;13.48;;;7.63;;
21458;SDS011;10891;49.350;19.386;2022-10-17T07:26:02;16.00;;;10.65;;
21458;SDS011;10891;49.350;19.386;2022-10-17T07:28:31;15.90;;;8.68;;
21458;SDS011;10891;49.350;19.386;2022-10-17T07:31:01;14.13;;;7.90;;
21458;SDS011;10891;49.350;19.386;2022-10-17T07:33:29;16.25;;;8.13;;
21458;SDS011;10891;49.350;19.386;2022-10-17T07:35:57;15.55;;;8.32;;
21458;SDS011;10891;49.350;19.386;2022-10-17T07:38:26;15.25;;;8.30;;
21458;SDS011;10891;49.350;19.386;2022-10-17T07:40:53;20.77;;;11.50;;
21458;SDS011;10891;49.350;19.386;2022-10-17T07:43:21;13.10;;;7.93;;
21458;SDS011;10891;49.350;19.386;2022-10-17T07:45:48;14.05;;;7.90;;
21458;SDS011;10891;49.350;19.386;2022-10-17T07:48:15;10.15;;;7.65;;
21458;SDS011;10891;49.350;19.386;2022-10-17T07:50:42;13.57;;;8.30;;
21458;SDS011;10891;49.350;19.386;2022-10-17T07:53:09;18.10;;;8.35;;
21458;SDS011;10891;49.350;19.386;2022-10-17T07:55:37;13.02;;;7.95;;
21458;SDS011;10891;49.350;19.386;2022-10-17T07:58:06;14.73;;;8.50;;
21458;SDS011;10891;49.350;19.386;2022-10-17T08:00:34;13.57;;;7.53;;
21458;SDS011;10891;49.350;19.386;2022-10-17T08:03:01;12.30;;;8.25;;
21458;SDS011;10891;49.350;19.386;2022-10-17T08:05:29;15.55;;;9.18;;
21458;SDS011;10891;49.350;19.386;2022-10-17T08:07:56;14.60;;;8.68;;
21458;SDS011;10891;49.350;19.386;2022-10-17T08:10:23;19.45;;;10.40;;
21458;SDS011;10891;49.350;19.386;2022-10-17T08:12:53;16.73;;;8.45;;
21458;SDS011;10891;49.350;19.386;2022-10-17T08:15:20;12.50;;;8.38;;
21458;SDS011;10891;49.350;19.386;2022-10-17T08:17:47;15.45;;;10.25;;
21458;SDS011;10891;49.350;19.386;2022-10-17T08:20:14;13.55;;;9.40;;
21458;SDS011;10891;49.350;19.386;2022-10-17T08:22:41;14.32;;;8.65;;
21458;SDS011;10891;49.350;19.386;2022-10-17T08:25:08;15.60;;;8.85;;
21458;SDS011;10891;49.350;19.386;2022-10-17T08:27:35;20.73;;;11.30;;
21458;SDS011;10891;49.350;19.386;2022-10-17T08:30:04;16.33;;;9.68;;
21458;SDS011;10891;49.350;19.386;2022-10-17T08:32:31;13.45;;;8.27;;
21458;SDS011;10891;49.350;19.386;2022-10-17T08:34:58;18.08;;;7.90;;
21458;SDS011;10891;49.350;19.386;2022-10-17T08:37:25;18.23;;;8.73;;
21458;SDS011;10891;49.350;19.386;2022-10-17T08:39:52;13.07;;;8.10;;
21458;SDS011;10891;49.350;19.386;2022-10-17T08:45:13;14.98;;;7.68;;
21458;SDS011;10891;49.350;19.386;2022-10-17T08:47:44;18.90;;;8.80;;
21458;SDS011;10891;49.350;19.386;2022-10-17T08:50:14;14.25;;;8.70;;
21458;SDS011;10891;49.350;19.386;2022-10-17T08:52:50;16.02;;;8.85;;
21458;SDS011;10891;49.350;19.386;2022-10-17T08:55:21;15.13;;;8.80;;
21458;SDS011;10891;49.350;19.386;2022-10-17T08:57:57;22.25;;;9.93;;
21458;SDS011;10891;49.350;19.386;2022-10-17T09:00:25;12.48;;;7.72;;
21458;SDS011;10891;49.350;19.386;2022-10-17T09:02:59;15.38;;;8.05;;
21458;SDS011;10891;49.350;19.386;2022-10-17T09:05:40;16.58;;;8.27;;
21458;SDS011;10891;49.350;19.386;2022-10-17T09:08:19;14.82;;;8.32;;
21458;SDS011;10891;49.350;19.386;2022-10-17T09:10:55;21.25;;;8.82;;
21458;SDS011;10891;49.350;19.386;2022-10-17T09:13:28;18.58;;;9.20;;
21458;SDS011;10891;49.350;19.386;2022-10-17T09:16:13;10.77;;;6.82;;
21458;SDS011;10891;49.350;19.386;2022-10-17T09:18:56;15.73;;;7.78;;
21458;SDS011;10891;49.350;19.386;2022-10-17T09:21:28;13.10;;;8.15;;
21458;SDS011;10891;49.350;19.386;2022-10-17T09:24:02;12.63;;;7.60;;
21458;SDS011;10891;49.350;19.386;2022-10-17T09:26:35;10.23;;;7.25;;
21458;SDS011;10891;49.350;19.386;2022-10-17T09:29:04;14.10;;;7.72;;
21458;SDS011;10891;49.350;19.386;2022-10-17T09:31:42;11.43;;;7.05;;
21458;SDS011;10891;49.350;19.386;2022-10-17T09:34:14;12.85;;;7.75;;
21458;SDS011;10891;49.350;19.386;2022-10-17T09:36:41;11.57;;;6.60;;
21458;SDS011;10891;49.350;19.386;2022-10-17T09:39:10;9.98;;;7.28;;
21458;SDS011;10891;49.350;19.386;2022-10-17T09:41:39;10.52;;;6.65;;
21458;SDS011;10891;49.350;19.386;2022-10-17T09:44:13;14.60;;;7.13;;
21458;SDS011;10891;49.350;19.386;2022-10-17T09:46:47;11.57;;;6.65;;
21458;SDS011;10891;49.350;19.386;2022-10-17T09:49:32;11.23;;;6.90;;
21458;SDS011;10891;49.350;19.386;2022-10-17T09:52:02;12.85;;;7.22;;
21458;SDS011;10891;49.350;19.386;2022-10-17T09:54:34;9.50;;;7.07;;
21458;SDS011;10891;49.350;19.386;2022-10-17T09:57:07;9.02;;;6.68;;
21458;SDS011;10891;49.350;19.386;2022-10-17T09:59:37;11.23;;;6.60;;
21458;SDS011;10891;49.350;19.386;2022-10-17T10:02:14;14.23;;;6.47;;
21458;SDS011;10891;49.350;19.386;2022-10-17T10:04:56;14.55;;;7.00;;
21458;SDS011;10891;49.350;19.386;2022-10-17T10:07:29;11.55;;;6.20;;
21458;SDS011;10891;49.350;19.386;2022-10-17T10:09:58;13.05;;;6.47;;
21458;SDS011;10891;49.350;19.386;2022-10-17T10:12:27;13.40;;;6.47;;
21458;SDS011;10891;49.350;19.386;2022-10-17T10:14:55;9.07;;;6.07;;
21458;SDS011;10891;49.350;19.386;2022-10-17T10:17:28;9.20;;;6.50;;
21458;SDS011;10891;49.350;19.386;2022-10-17T10:20:05;15.20;;;7.28;;
21458;SDS011;10891;49.350;19.386;2022-10-17T10:23:04;15.48;;;7.55;;
21458;SDS011;10891;49.350;19.386;2022-10-17T10:25:32;12.02;;;7.15;;
21458;SDS011;10891;49.350;19.386;2022-10-17T10:28:00;11.68;;;6.13;;
21458;SDS011;10891;49.350;19.386;2022-10-17T10:30:29;12.35;;;7.35;;
21458;SDS011;10891;49.350;19.386;2022-10-17T10:32:57;8.73;;;6.47;;
21458;SDS011;10891;49.350;19.386;2022-10-17T10:35:28;12.80;;;6.47;;
21458;SDS011;10891;49.350;19.386;2022-10-17T10:37:58;13.85;;;6.63;;
21458;SDS011;10891;49.350;19.386;2022-10-17T10:40:26;12.07;;;6.88;;
21458;SDS011;10891;49.350;19.386;2022-10-17T10:42:57;11.45;;;6.32;;
21458;SDS011;10891;49.350;19.386;2022-10-17T10:45:26;16.02;;;7.00;;
21458;SDS011;10891;49.350;19.386;2022-10-17T10:48:16;21.30;;;7.75;;
21458;SDS011;10891;49.350;19.386;2022-10-17T10:50:46;15.70;;;6.88;;
21458;SDS011;10891;49.350;19.386;2022-10-17T10:53:28;14.93;;;6.22;;
21458;SDS011;10891;49.350;19.386;2022-10-17T10:56:05;15.65;;;6.63;;
21458;SDS011;10891;49.350;19.386;2022-10-17T10:58:42;17.27;;;6.13;;
21458;SDS011;10891;49.350;19.386;2022-10-17T11:01:21;12.15;;;5.78;;
21458;SDS011;10891;49.350;19.386;2022-10-17T11:04:04;12.23;;;5.80;;
21458;SDS011;10891;49.350;19.386;2022-10-17T11:06:43;15.70;;;6.57;;
21458;SDS011;10891;49.350;19.386;2022-10-17T11:09:12;11.07;;;5.47;;
21458;SDS011;10891;49.350;19.386;2022-10-17T11:11:51;8.80;;;5.03;;
21458;SDS011;10891;49.350;19.386;2022-10-17T11:14:23;16.10;;;5.55;;
21458;SDS011;10891;49.350;19.386;2022-10-17T11:17:02;6.70;;;4.55;;
21458;SDS011;10891;49.350;19.386;2022-10-17T11:19:37;9.43;;;5.10;;
21458;SDS011;10891;49.350;19.386;2022-10-17T11:22:11;10.65;;;5.97;;
21458;SDS011;10891;49.350;19.386;2022-10-17T11:24:42;8.77;;;5.40;;
21458;SDS011;10891;49.350;19.386;2022-10-17T11:27:13;10.18;;;5.18;;
21458;SDS011;10891;49.350;19.386;2022-10-17T11:29:40;8.40;;;5.13;;
21458;SDS011;10891;49.350;19.386;2022-10-17T11:32:10;6.85;;;4.90;;
21458;SDS011;10891;49.350;19.386;2022-10-17T11:34:43;8.02;;;4.78;;
21458;SDS011;10891;49.350;19.386;2022-10-17T11:37:14;9.05;;;5.57;;
21458;SDS011;10891;49.350;19.386;2022-10-17T11:39:44;7.95;;;4.40;;
21458;SDS011;10891;49.350;19.386;2022-10-17T11:42:17;8.10;;;4.75;;
21458;SDS011;10891;49.350;19.386;2022-10-17T11:44:49;6.80;;;4.00;;
21458;SDS011;10891;49.350;19.386;2022-10-17T11:47:25;8.38;;;3.85;;
21458;SDS011;10891;49.350;19.386;2022-10-17T11:49:59;17.23;;;5.22;;
21458;SDS011;10891;49.350;19.386;2022-10-17T11:52:32;7.78;;;4.35;;
21458;SDS011;10891;49.350;19.386;2022-10-17T11:55:04;9.02;;;5.25;;
21458;SDS011;10891;49.350;19.386;2022-10-17T12:00:42;12.45;;;5.35;;
21458;SDS011;10891;49.350;19.386;2022-10-17T12:03:21;6.50;;;3.95;;
21458;SDS011;10891;49.350;19.386;2022-10-17T12:06:02;7.32;;;4.15;;
21458;SDS011;10891;49.350;19.386;2022-10-17T12:08:34;7.10;;;3.33;;
21458;SDS011;10891;49.350;19.386;2022-10-17T12:11:06;8.63;;;4.38;;
21458;SDS011;10891;49.350;19.386;2022-10-17T12:13:45;9.93;;;4.15;;
21458;SDS011;10891;49.350;19.386;2022-10-17T12:19:22;9.25;;;4.30;;
21458;SDS011;10891;49.350;19.386;2022-10-17T12:21:55;11.10;;;5.85;;
21458;SDS011;10891;49.350;19.386;2022-10-17T12:24:26;5.63;;;3.65;;
21458;SDS011;10891;49.350;19.386;2022-10-17T12:27:22;9.27;;;4.13;;
21458;SDS011;10891;49.350;19.386;2022-10-17T12:29:57;7.63;;;4.18;;
21458;SDS011;10891;49.350;19.386;2022-10-17T12:32:25;9.38;;;3.90;;
21458;SDS011;10891;49.350;19.386;2022-10-17T12:34:52;8.60;;;4.03;;
21458;SDS011;10891;49.350;19.386;2022-10-17T12:43:42;8.88;;;4.07;;
21458;SDS011;10891;49.350;19.386;2022-10-17T12:49:21;8.50;;;3.70;;
21458;SDS011;10891;49.350;19.386;2022-10-17T12:54:55;7.53;;;4.72;;
21458;SDS011;10891;49.350;19.386;2022-10-17T12:57:32;4.78;;;3.65;;
21458;SDS011;10891;49.350;19.386;2022-10-17T13:00:03;7.18;;;3.53;;
21458;SDS011;10891;49.350;19.386;2022-10-17T13:02:39;6.18;;;3.08;;
21458;SDS011;10891;49.350;19.386;2022-10-17T13:05:07;7.10;;;3.67;;
21458;SDS011;10891;49.350;19.386;2022-10-17T13:07:40;5.30;;;3.28;;
21458;SDS011;10891;49.350;19.386;2022-10-17T13:10:18;9.75;;;4.05;;
21458;SDS011;10891;49.350;19.386;2022-10-17T13:12:46;12.20;;;4.43;;
21458;SDS011;10891;49.350;19.386;2022-10-17T13:15:15;7.93;;;3.63;;
21458;SDS011;10891;49.350;19.386;2022-10-17T13:17:45;6.20;;;3.80;;
21458;SDS011;10891;49.350;19.386;2022-10-17T13:20:22;5.68;;;4.55;;
21458;SDS011;10891;49.350;19.386;2022-10-17T13:22:52;12.95;;;6.28;;
21458;SDS011;10891;49.350;19.386;2022-10-17T13:25:22;10.20;;;6.80;;
21458;SDS011;10891;49.350;19.386;2022-10-17T13:27:50;18.98;;;10.63;;
21458;SDS011;10891;49.350;19.386;2022-10-17T13:30:30;25.42;;;13.73;;
21458;SDS011;10891;49.350;19.386;2022-10-17T13:32:59;28.17;;;17.33;;
21458;SDS011;10891;49.350;19.386;2022-10-17T13:35:27;13.30;;;7.40;;
21458;SDS011;10891;49.350;19.386;2022-10-17T13:37:55;13.13;;;5.53;;
21458;SDS011;10891;49.350;19.386;2022-10-17T13:40:26;8.55;;;4.40;;
21458;SDS011;10891;49.350;19.386;2022-10-17T13:42:55;11.73;;;4.80;;
21458;SDS011;10891;49.350;19.386;2022-10-17T13:45:28;8.82;;;3.92;;
21458;SDS011;10891;49.350;19.386;2022-10-17T13:47:57;7.70;;;4.53;;
21458;SDS011;10891;49.350;19.386;2022-10-17T13:50:30;9.35;;;4.85;;
21458;SDS011;10891;49.350;19.386;2022-10-17T13:53:07;8.40;;;3.75;;
21458;SDS011;10891;49.350;19.386;2022-10-17T13:55:53;8.60;;;4.20;;
21458;SDS011;10891;49.350;19.386;2022-10-17T13:58:25;11.35;;;5.22;;
21458;SDS011;10891;49.350;19.386;2022-10-17T14:00:56;17.08;;;7.00;;
21458;SDS011;10891;49.350;19.386;2022-10-17T14:03:23;8.43;;;4.57;;
21458;SDS011;10891;49.350;19.386;2022-10-17T14:05:57;45.53;;;12.07;;
21458;SDS011;10891;49.350;19.386;2022-10-17T14:08:27;36.17;;;11.90;;
21458;SDS011;10891;49.350;19.386;2022-10-17T14:10:56;55.72;;;18.63;;
21458;SDS011;10891;49.350;19.386;2022-10-17T14:13:24;52.60;;;16.92;;
21458;SDS011;10891;49.350;19.386;2022-10-17T14:15:53;25.90;;;9.27;;
21458;SDS011;10891;49.350;19.386;2022-10-17T14:18:23;15.05;;;6.05;;
21458;SDS011;10891;49.350;19.386;2022-10-17T14:20:52;19.67;;;7.22;;
21458;SDS011;10891;49.350;19.386;2022-10-17T14:23:30;27.23;;;9.23;;
21458;SDS011;10891;49.350;19.386;2022-10-17T14:26:07;22.10;;;7.95;;
21458;SDS011;10891;49.350;19.386;2022-10-17T14:28:36;18.48;;;7.03;;
21458;SDS011;10891;49.350;19.386;2022-10-17T14:31:08;14.95;;;6.32;;
21458;SDS011;10891;49.350;19.386;2022-10-17T14:33:47;48.08;;;13.45;;
21458;SDS011;10891;49.350;19.386;2022-10-17T14:36:15;50.80;;;15.88;;
21458;SDS011;10891;49.350;19.386;2022-10-17T14:38:46;46.60;;;13.93;;
21458;SDS011;10891;49.350;19.386;2022-10-17T14:41:20;42.85;;;14.27;;
21458;SDS011;10891;49.350;19.386;2022-10-17T14:43:53;29.27;;;11.02;;
21458;SDS011;10891;49.350;19.386;2022-10-17T14:46:21;34.35;;;11.77;;
21458;SDS011;10891;49.350;19.386;2022-10-17T14:48:52;22.10;;;8.02;;
21458;SDS011;10891;49.350;19.386;2022-10-17T14:51:21;17.88;;;7.07;;
21458;SDS011;10891;49.350;19.386;2022-10-17T14:53:58;12.38;;;5.57;;
21458;SDS011;10891;49.350;19.386;2022-10-17T14:56:34;10.68;;;5.55;;
21458;SDS011;10891;49.350;19.386;2022-10-17T14:59:04;10.02;;;5.60;;
21458;SDS011;10891;49.350;19.386;2022-10-17T15:01:32;18.17;;;7.95;;